createdAt,value
2023-02-26T00:01:52.763Z,13.30
2023-02-26T00:04:21.495Z,13.20
2023-02-26T00:06:59.586Z,13.20
2023-02-26T00:09:30.145Z,13.20
2023-02-26T00:11:59.770Z,13.20
2023-02-26T00:14:29.374Z,13.20
2023-02-26T00:17:30.336Z,13.20
2023-02-26T00:19:59.700Z,13.10
2023-02-26T00:22:28.970Z,13.20
2023-02-26T00:24:58.857Z,13.10
2023-02-26T00:27:27.407Z,13.10
2023-02-26T00:29:56.636Z,13.10
2023-02-26T00:32:25.987Z,13.10
2023-02-26T00:34:55.515Z,13.00
2023-02-26T00:37:57.352Z,13.00
2023-02-26T00:40:41.927Z,13.00
2023-02-26T00:43:16.813Z,12.90
2023-02-26T00:45:57.550Z,12.90
2023-02-26T00:48:48.877Z,12.90
2023-02-26T00:51:29.233Z,12.90
2023-02-26T00:54:09.675Z,12.90
2023-02-26T00:56:39.589Z,12.90
2023-02-26T00:59:07.997Z,12.90
2023-02-26T01:01:36.603Z,12.80
2023-02-26T01:04:25.820Z,12.80
2023-02-26T01:06:58.362Z,12.90
2023-02-26T01:09:29.899Z,12.90
2023-02-26T01:12:03.652Z,12.90
2023-02-26T01:14:33.892Z,12.90
2023-02-26T01:17:12.509Z,12.90
2023-02-26T01:19:49.643Z,12.90
2023-02-26T01:22:24.676Z,13.00
2023-02-26T01:25:05.166Z,13.00
2023-02-26T01:27:44.831Z,13.00
2023-02-26T01:30:14.552Z,13.00
2023-02-26T01:32:49.637Z,13.00
2023-02-26T01:35:38.805Z,13.00
2023-02-26T01:38:21.764Z,13.00
2023-02-26T01:41:30.203Z,13.00
2023-02-26T01:44:10.853Z,13.00
2023-02-26T01:47:16.189Z,13.00
2023-02-26T01:49:46.733Z,13.00
2023-02-26T01:53:06.007Z,13.10
2023-02-26T01:55:34.508Z,13.10
2023-02-26T01:58:04.334Z,13.10
2023-02-26T02:00:34.495Z,13.20
2023-02-26T02:03:03.388Z,13.10
2023-02-26T02:06:02.009Z,13.10
2023-02-26T02:08:33.584Z,13.10
2023-02-26T02:11:02.731Z,13.00
2023-02-26T02:13:48.135Z,13.10
2023-02-26T02:16:33.200Z,13.10
2023-02-26T02:19:24.935Z,13.10
2023-02-26T02:22:15.915Z,13.10
2023-02-26T02:25:09.663Z,13.00
2023-02-26T02:27:53.247Z,13.10
2023-02-26T02:30:56.049Z,13.00
2023-02-26T02:33:35.708Z,13.00
2023-02-26T02:36:13.942Z,13.00
2023-02-26T02:38:52.108Z,13.00
2023-02-26T02:41:28.429Z,13.00
2023-02-26T02:44:01.158Z,13.10
2023-02-26T02:46:34.992Z,13.10
2023-02-26T02:49:10.057Z,13.10
2023-02-26T02:51:46.273Z,13.00
2023-02-26T02:54:21.529Z,13.10
2023-02-26T02:56:57.562Z,13.10
2023-02-26T02:59:42.318Z,13.10
2023-02-26T03:02:19.506Z,13.10
2023-02-26T03:04:50.023Z,13.10
2023-02-26T03:07:18.692Z,13.10
2023-02-26T03:09:47.945Z,13.00
2023-02-26T03:12:16.979Z,13.00
2023-02-26T03:14:45.652Z,13.00
2023-02-26T03:17:51.172Z,13.10
2023-02-26T03:20:29.583Z,13.10
2023-02-26T03:23:10.816Z,13.10
2023-02-26T03:25:49.806Z,13.10
2023-02-26T03:28:29.685Z,13.10
2023-02-26T03:31:07.139Z,13.10
2023-02-26T03:33:46.754Z,13.10
2023-02-26T03:36:26.233Z,13.10
2023-02-26T03:39:04.021Z,13.10
2023-02-26T03:41:40.269Z,13.10
2023-02-26T03:44:14.956Z,13.10
2023-02-26T03:46:49.889Z,13.20
2023-02-26T03:49:28.602Z,13.20
2023-02-26T03:52:00.968Z,13.20
2023-02-26T03:54:36.750Z,13.10
2023-02-26T03:57:05.569Z,13.20
2023-02-26T03:59:45.400Z,13.30
2023-02-26T04:02:19.773Z,13.30
2023-02-26T04:04:55.441Z,13.30
2023-02-26T04:07:25.759Z,13.30
2023-02-26T04:09:54.821Z,13.30
2023-02-26T04:12:25.299Z,13.30
2023-02-26T04:14:53.970Z,13.30
2023-02-26T04:17:22.421Z,13.30
2023-02-26T04:19:50.942Z,13.30
2023-02-26T04:22:19.569Z,13.30
2023-02-26T04:24:49.450Z,13.30
2023-02-26T04:27:17.936Z,13.30
2023-02-26T04:29:46.455Z,13.30
2023-02-26T04:32:15.032Z,13.30
2023-02-26T04:34:43.679Z,13.30
2023-02-26T04:37:12.195Z,13.20
2023-02-26T04:39:40.752Z,13.20
2023-02-26T04:42:10.562Z,13.20
2023-02-26T04:44:39.141Z,13.30
2023-02-26T04:47:07.607Z,13.30
2023-02-26T04:49:36.084Z,13.20
2023-02-26T04:52:04.765Z,13.30
2023-02-26T04:55:22.957Z,13.30
2023-02-26T04:57:52.899Z,13.30
2023-02-26T05:00:21.754Z,13.30
2023-02-26T05:02:50.268Z,13.30
2023-02-26T05:05:19.024Z,13.40
2023-02-26T05:07:47.445Z,13.30
2023-02-26T05:10:16.038Z,13.30
2023-02-26T05:12:44.508Z,13.30
2023-02-26T05:15:39.753Z,13.40
2023-02-26T05:18:08.185Z,13.40
2023-02-26T05:20:36.850Z,13.40
2023-02-26T05:23:05.688Z,13.40
2023-02-26T05:25:34.226Z,13.60
2023-02-26T05:28:02.822Z,13.60
2023-02-26T05:30:31.301Z,13.60
2023-02-26T05:33:01.219Z,13.50
2023-02-26T05:35:29.750Z,13.50
2023-02-26T05:37:58.305Z,13.50
2023-02-26T05:40:26.763Z,13.40
2023-02-26T05:42:55.268Z,13.40
2023-02-26T05:45:23.764Z,13.50
2023-02-26T05:47:57.285Z,13.40
2023-02-26T05:50:27.332Z,13.40
2023-02-26T05:52:55.811Z,13.40
2023-02-26T05:55:24.538Z,13.40
2023-02-26T05:57:53.371Z,13.30
2023-02-26T06:00:22.544Z,13.40
2023-02-26T06:02:51.357Z,13.40
2023-02-26T06:05:20.042Z,13.50
2023-02-26T06:07:49.981Z,13.50
2023-02-26T06:10:18.827Z,13.60
2023-02-26T06:12:47.293Z,13.60
2023-02-26T06:15:41.159Z,13.70
2023-02-26T06:18:12.515Z,13.70
2023-02-26T06:20:40.982Z,13.80
2023-02-26T06:23:10.869Z,14.00
2023-02-26T06:25:39.271Z,14.00
2023-02-26T06:28:07.796Z,14.10
2023-02-26T06:30:38.393Z,14.20
2023-02-26T06:33:06.906Z,14.20
2023-02-26T06:35:35.307Z,14.20
2023-02-26T06:38:03.890Z,14.30
2023-02-26T06:40:33.841Z,14.30
2023-02-26T06:43:02.298Z,14.40
2023-02-26T06:45:30.953Z,14.50
2023-02-26T06:47:59.563Z,14.60
2023-02-26T06:50:28.105Z,14.60
2023-02-26T06:52:56.877Z,14.70
2023-02-26T06:55:27.019Z,14.70
2023-02-26T06:58:43.414Z,14.70
2023-02-26T07:01:11.980Z,14.80
2023-02-26T07:03:40.611Z,14.80
2023-02-26T07:06:26.453Z,14.90
2023-02-26T07:08:59.703Z,14.90
2023-02-26T07:11:28.546Z,15.00
2023-02-26T07:13:58.444Z,15.00
2023-02-26T07:16:27.331Z,15.00
2023-02-26T07:18:56.052Z,15.00
2023-02-26T07:21:24.618Z,15.00
2023-02-26T07:23:53.128Z,15.00
2023-02-26T07:26:21.799Z,15.10
2023-02-26T07:28:50.208Z,15.20
2023-02-26T07:31:20.169Z,15.20
2023-02-26T07:33:48.764Z,15.20
2023-02-26T07:36:17.301Z,15.20
2023-02-26T07:38:45.722Z,15.20
2023-02-26T07:41:14.168Z,15.10
2023-02-26T07:43:42.927Z,15.20
2023-02-26T07:46:11.507Z,15.20
2023-02-26T07:48:42.103Z,15.30
2023-02-26T07:51:11.152Z,15.30
2023-02-26T07:53:39.758Z,15.30
2023-02-26T07:56:08.181Z,15.30
2023-02-26T07:58:36.668Z,15.30
2023-02-26T08:01:05.560Z,15.20
2023-02-26T08:03:34.419Z,15.30
2023-02-26T08:06:05.325Z,15.30
2023-02-26T08:08:34.326Z,15.30
2023-02-26T08:11:03.372Z,15.30
2023-02-26T08:13:32.463Z,15.40
2023-02-26T08:16:00.991Z,15.40
2023-02-26T08:18:29.493Z,15.50
2023-02-26T08:20:58.080Z,15.50
2023-02-26T08:23:52.616Z,15.60
2023-02-26T08:26:21.198Z,15.60
2023-02-26T08:28:50.201Z,15.60
2023-02-26T08:31:19.267Z,15.70
2023-02-26T08:33:48.078Z,15.70
2023-02-26T08:36:16.518Z,15.80
2023-02-26T08:38:45.062Z,15.90
2023-02-26T08:41:14.999Z,15.90
2023-02-26T08:43:43.476Z,16.00
2023-02-26T08:46:12.156Z,16.00
2023-02-26T08:48:49.790Z,16.00
2023-02-26T08:51:18.912Z,16.00
2023-02-26T08:53:47.662Z,16.10
2023-02-26T08:56:18.475Z,16.20
2023-02-26T08:58:47.001Z,16.30
2023-02-26T09:01:18.362Z,16.30
2023-02-26T09:03:46.833Z,16.30
2023-02-26T09:06:40.262Z,16.30
2023-02-26T09:09:08.759Z,16.20
2023-02-26T09:11:38.841Z,16.20
2023-02-26T09:14:07.656Z,16.30
2023-02-26T09:16:36.994Z,16.50
2023-02-26T09:19:07.412Z,16.50
2023-02-26T09:21:36.720Z,16.80
2023-02-26T09:24:05.555Z,16.90
2023-02-26T09:26:34.042Z,16.90
2023-02-26T09:29:04.346Z,17.00
2023-02-26T09:31:34.009Z,17.20
2023-02-26T09:34:02.713Z,17.30
2023-02-26T09:36:31.507Z,17.40
2023-02-26T09:39:00.791Z,17.40
2023-02-26T09:41:34.157Z,17.40
2023-02-26T09:44:21.661Z,17.40
2023-02-26T09:47:03.434Z,17.40
2023-02-26T09:49:50.415Z,17.60
2023-02-26T09:52:26.954Z,17.60
2023-02-26T09:55:01.409Z,17.50
2023-02-26T09:57:34.142Z,17.40
2023-02-26T10:00:15.589Z,17.60
2023-02-26T10:03:00.815Z,17.40
2023-02-26T10:05:42.125Z,17.30
2023-02-26T10:08:18.528Z,17.40
2023-02-26T10:10:56.098Z,17.30
2023-02-26T10:13:38.489Z,17.30
2023-02-26T10:16:20.158Z,17.30
2023-02-26T10:18:56.542Z,17.40
2023-02-26T10:21:32.727Z,17.30
2023-02-26T10:24:08.357Z,17.40
2023-02-26T10:26:42.534Z,17.50
2023-02-26T10:29:24.686Z,17.50
2023-02-26T10:32:12.070Z,17.40
2023-02-26T10:34:52.387Z,17.30
2023-02-26T10:37:29.762Z,17.30
2023-02-26T10:40:10.818Z,17.30
2023-02-26T10:42:44.403Z,17.30
2023-02-26T10:45:30.186Z,17.30
2023-02-26T10:48:19.606Z,17.40
2023-02-26T10:50:53.426Z,17.40
2023-02-26T10:53:23.615Z,17.20
2023-02-26T10:56:01.278Z,17.10
2023-02-26T10:58:29.811Z,17.00
2023-02-26T11:00:58.770Z,16.90
2023-02-26T11:03:35.705Z,16.80
2023-02-26T11:06:06.909Z,16.70
2023-02-26T11:08:41.714Z,16.60
2023-02-26T11:11:11.065Z,16.60
2023-02-26T11:13:40.706Z,16.50
2023-02-26T11:16:16.674Z,16.60
2023-02-26T11:18:55.109Z,16.50
2023-02-26T11:21:28.151Z,16.50
2023-02-26T11:24:03.634Z,16.40
2023-02-26T11:26:37.008Z,16.30
2023-02-26T11:29:07.386Z,16.40
2023-02-26T11:31:35.979Z,16.40
2023-02-26T11:34:11.996Z,16.40
2023-02-26T11:36:45.798Z,16.30
2023-02-26T11:52:28.979Z,16.20
2023-02-26T11:55:03.570Z,16.10
2023-02-26T11:57:34.600Z,16.00
2023-02-26T12:00:20.379Z,16.00
2023-02-26T12:02:49.508Z,15.90
2023-02-26T12:05:20.298Z,15.90
2023-02-26T12:08:20.596Z,15.80
2023-02-26T12:11:17.505Z,15.80
2023-02-26T12:14:06.361Z,15.80
2023-02-26T12:16:53.435Z,15.80
2023-02-26T12:19:42.994Z,15.80
2023-02-26T12:22:54.999Z,15.90
2023-02-26T12:25:56.036Z,15.90
2023-02-26T12:28:51.874Z,15.90
2023-02-26T12:32:05.048Z,15.90
2023-02-26T12:35:23.872Z,15.90
2023-02-26T12:38:09.383Z,15.80
2023-02-26T12:41:26.326Z,15.90
2023-02-26T12:43:58.128Z,15.90
2023-02-26T12:46:50.366Z,16.10
2023-02-26T12:50:40.887Z,16.10
2023-02-26T12:53:56.593Z,16.20
2023-02-26T14:12:02.021Z,16.10
2023-02-26T14:14:42.213Z,16.10
2023-02-26T14:17:39.181Z,16.00
2023-02-26T14:20:35.616Z,15.90
2023-02-26T14:23:36.130Z,15.80
2023-02-26T14:26:19.096Z,15.80
2023-02-26T14:28:58.674Z,15.70
2023-02-26T14:31:28.414Z,15.60
2023-02-26T14:34:14.827Z,15.60
2023-02-26T14:36:49.820Z,15.50
2023-02-26T14:39:29.516Z,15.50
2023-02-26T14:42:04.979Z,15.40
2023-02-26T14:44:40.367Z,15.40
2023-02-26T14:47:10.600Z,15.30
2023-02-26T14:49:42.621Z,15.30
2023-02-26T14:52:57.585Z,15.20
2023-02-26T14:56:05.835Z,15.20
2023-02-26T14:59:12.923Z,15.10
2023-02-26T15:01:53.059Z,15.10
2023-02-26T15:04:57.117Z,15.10
2023-02-26T15:07:50.025Z,15.10
2023-02-26T15:10:36.244Z,15.00
2023-02-26T15:13:30.240Z,15.00
2023-02-26T15:16:46.842Z,14.90
2023-02-26T15:19:39.566Z,14.80
2023-02-26T15:22:34.256Z,14.80
2023-02-26T15:25:03.473Z,14.70
2023-02-26T15:27:34.811Z,14.60
2023-02-26T15:30:06.596Z,14.60
2023-02-26T15:32:41.255Z,14.60
2023-02-26T15:35:20.086Z,14.60
2023-02-26T15:37:51.875Z,14.50
2023-02-26T15:40:21.226Z,14.40
2023-02-26T15:42:55.549Z,14.40
2023-02-26T15:45:32.419Z,14.40
2023-02-26T15:48:05.921Z,14.30
2023-02-26T15:50:41.920Z,14.30
2023-02-26T15:53:22.702Z,14.30
2023-02-26T15:55:56.176Z,14.30
2023-02-26T15:58:37.287Z,14.30
2023-02-26T16:01:15.480Z,14.20
2023-02-26T16:03:44.173Z,14.20
2023-02-26T16:06:17.304Z,14.10
2023-02-26T16:08:46.139Z,14.10
2023-02-26T16:11:16.788Z,14.10
2023-02-26T16:13:46.871Z,14.10
2023-02-26T16:16:30.974Z,14.10
2023-02-26T16:19:00.102Z,14.10
2023-02-26T16:21:35.512Z,14.00
2023-02-26T16:24:10.849Z,13.90
2023-02-26T16:27:01.828Z,14.00
2023-02-26T16:29:33.152Z,13.90
2023-02-26T16:32:06.016Z,14.00
2023-02-26T16:34:41.353Z,13.90
2023-02-26T16:37:24.304Z,13.90
2023-02-26T16:40:24.082Z,13.90
2023-02-26T16:43:03.901Z,13.90
2023-02-26T16:45:51.212Z,13.90
2023-02-26T16:48:27.445Z,13.80
2023-02-26T16:51:01.994Z,13.90
2023-02-26T16:53:39.051Z,13.90
2023-02-26T16:56:07.802Z,13.90
2023-02-26T16:58:36.661Z,14.00
2023-02-26T17:01:10.421Z,14.00
2023-02-26T17:03:40.963Z,13.90
2023-02-26T17:06:14.943Z,13.90
2023-02-26T17:08:51.137Z,13.90
2023-02-26T17:11:25.897Z,13.80
2023-02-26T17:14:19.153Z,13.80
2023-02-26T17:16:48.112Z,13.80
2023-02-26T17:19:18.780Z,13.70
2023-02-26T17:21:51.543Z,13.70
2023-02-26T17:24:26.121Z,13.50
2023-02-26T17:26:55.273Z,13.50
2023-02-26T17:29:33.266Z,13.40
2023-02-26T17:32:02.478Z,13.40
2023-02-26T17:34:32.541Z,13.40
2023-02-26T17:37:05.567Z,13.40
2023-02-26T17:39:34.230Z,13.40
2023-02-26T17:42:02.739Z,13.50
2023-02-26T17:44:31.287Z,13.60
2023-02-26T17:46:59.719Z,13.70
2023-02-26T17:49:28.269Z,13.60
2023-02-26T17:52:23.230Z,13.60
2023-02-26T17:54:51.705Z,13.50
2023-02-26T17:57:22.926Z,13.60
2023-02-26T17:59:51.487Z,13.70
2023-02-26T18:02:25.532Z,13.70
2023-02-26T18:04:54.279Z,13.60
2023-02-26T18:07:26.248Z,13.70
2023-02-26T18:09:54.770Z,13.70
2023-02-26T18:12:24.217Z,13.60
2023-02-26T18:14:53.312Z,13.50
2023-02-26T18:17:27.622Z,13.50
2023-02-26T18:19:56.569Z,13.50
2023-02-26T18:22:27.755Z,13.50
2023-02-26T18:24:56.812Z,13.40
2023-02-26T18:27:27.980Z,13.40
2023-02-26T18:29:59.159Z,13.40
2023-02-26T18:32:28.289Z,13.40
2023-02-26T18:34:57.301Z,13.40
2023-02-26T18:37:29.767Z,13.20
2023-02-26T18:39:58.645Z,13.20
2023-02-26T18:42:29.078Z,13.20
2023-02-26T18:44:57.732Z,13.10
2023-02-26T18:47:26.649Z,13.10
2023-02-26T18:49:55.776Z,13.10
2023-02-26T18:52:26.772Z,13.00
2023-02-26T18:54:55.647Z,13.00
2023-02-26T18:57:49.092Z,13.10
2023-02-26T19:00:18.374Z,13.10
2023-02-26T19:02:47.624Z,13.10
2023-02-26T19:05:18.573Z,13.10
2023-02-26T19:08:18.374Z,13.00
2023-02-26T19:10:47.429Z,13.00
2023-02-26T19:13:16.085Z,13.00
2023-02-26T19:15:44.994Z,12.90
2023-02-26T19:18:13.685Z,12.90
2023-02-26T19:20:42.944Z,12.90
2023-02-26T19:23:12.127Z,13.00
2023-02-26T19:25:43.091Z,13.00
2023-02-26T19:28:11.780Z,13.00
2023-02-26T19:30:41.488Z,13.00
2023-02-26T19:33:10.112Z,13.00
2023-02-26T19:35:38.781Z,12.90
2023-02-26T19:38:07.231Z,12.80
2023-02-26T19:40:35.814Z,12.80
2023-02-26T19:43:05.892Z,12.70
2023-02-26T19:45:34.619Z,12.70
2023-02-26T19:48:03.459Z,12.70
2023-02-26T19:50:32.171Z,12.70
2023-02-26T19:53:01.048Z,12.80
2023-02-26T19:55:29.890Z,12.80
2023-02-26T19:57:58.651Z,12.80
2023-02-26T20:00:28.628Z,12.80
2023-02-26T20:02:57.137Z,12.80
2023-02-26T20:05:25.965Z,12.80
2023-02-26T20:07:56.348Z,12.80
2023-02-26T20:10:26.538Z,12.90
2023-02-26T20:12:56.113Z,13.00
2023-02-26T20:15:28.985Z,13.00
2023-02-26T20:17:57.673Z,13.00
2023-02-26T20:20:26.373Z,13.10
2023-02-26T20:22:55.214Z,13.10
2023-02-26T20:25:24.297Z,13.00
2023-02-26T20:27:53.159Z,13.00
2023-02-26T20:30:22.393Z,13.00
2023-02-26T20:32:52.598Z,13.00
2023-02-26T20:35:21.610Z,12.90
2023-02-26T20:37:53.033Z,12.90
2023-02-26T20:40:21.980Z,12.90
2023-02-26T20:42:50.650Z,12.90
2023-02-26T20:45:19.374Z,12.90
2023-02-26T20:47:47.896Z,12.90
2023-02-26T20:50:18.427Z,12.90
2023-02-26T20:52:46.904Z,12.90
2023-02-26T20:55:15.543Z,12.90
2023-02-26T20:57:44.145Z,12.90
2023-02-26T21:00:15.423Z,12.80
2023-02-26T21:02:46.084Z,12.80
2023-02-26T21:05:15.976Z,12.80
2023-02-26T21:07:46.257Z,12.80
2023-02-26T21:10:17.315Z,12.70
2023-02-26T21:12:46.005Z,12.70
2023-02-26T21:15:15.354Z,12.70
2023-02-26T21:17:44.931Z,12.70
2023-02-26T21:20:17.945Z,12.70
2023-02-26T21:22:47.957Z,12.60
2023-02-26T21:25:16.510Z,12.70
2023-02-26T21:30:28.958Z,12.70
2023-02-26T21:32:57.634Z,12.70
2023-02-26T21:35:26.102Z,12.70
2023-02-26T21:38:22.589Z,12.80
2023-02-26T21:40:51.230Z,12.80
2023-02-26T21:43:19.694Z,12.80
2023-02-26T21:45:50.411Z,12.90
2023-02-26T21:48:19.018Z,12.90
2023-02-26T21:50:48.056Z,13.00
2023-02-26T21:53:16.526Z,13.00
2023-02-26T21:55:46.480Z,13.00
2023-02-26T21:58:14.978Z,13.00
2023-02-26T22:00:43.512Z,13.00
2023-02-26T22:03:12.443Z,12.90
2023-02-26T22:05:40.844Z,13.00
2023-02-26T22:08:09.733Z,13.00
2023-02-26T22:10:38.321Z,13.00
2023-02-26T22:13:08.130Z,13.00
2023-02-26T22:15:36.583Z,13.00
2023-02-26T22:18:05.642Z,13.00
2023-02-26T22:20:34.101Z,13.00
2023-02-26T22:23:02.584Z,12.90
2023-02-26T22:25:31.183Z,13.00
2023-02-26T22:27:59.833Z,13.00
2023-02-26T22:30:29.795Z,13.00
2023-02-26T22:32:58.288Z,13.00
2023-02-26T22:35:26.700Z,13.00
2023-02-26T22:37:55.484Z,13.00
2023-02-26T22:40:26.300Z,13.00
2023-02-26T22:42:54.996Z,13.00
2023-02-26T22:45:23.531Z,13.00
2023-02-26T22:47:53.490Z,12.90
2023-02-26T22:50:23.441Z,12.80
2023-02-26T22:52:51.998Z,12.80
2023-02-26T22:55:20.772Z,12.80
2023-02-26T22:57:49.180Z,12.80
2023-02-26T23:00:20.730Z,12.80
2023-02-26T23:02:50.729Z,12.80
2023-02-26T23:05:20.830Z,12.80
2023-02-26T23:07:49.895Z,12.80
2023-02-26T23:10:21.491Z,12.70
2023-02-26T23:12:50.442Z,12.70
2023-02-26T23:15:19.045Z,12.70
2023-02-26T23:17:47.500Z,12.80
2023-02-26T23:20:17.004Z,12.70
2023-02-26T23:22:46.839Z,12.70
2023-02-26T23:25:15.369Z,12.60
2023-02-26T23:27:44.088Z,12.70
2023-02-26T23:30:14.446Z,12.70
2023-02-26T23:32:42.877Z,12.70
2023-02-26T23:35:11.858Z,12.80
2023-02-26T23:37:40.493Z,12.80
2023-02-26T23:40:14.612Z,12.80
2023-02-26T23:42:43.310Z,12.80
2023-02-26T23:45:13.160Z,12.70
2023-02-26T23:47:42.130Z,12.70
2023-02-26T23:50:12.798Z,12.70
2023-02-26T23:52:41.295Z,12.70
2023-02-26T23:55:12.624Z,12.70
2023-02-26T23:57:50.344Z,12.60
